createdAt,value
2019-04-30T00:00:00.434Z,12.26
2019-04-30T00:02:38.346Z,12.23
2019-04-30T00:05:00.870Z,12.14
2019-04-30T00:07:29.364Z,12.29
2019-04-30T00:09:57.811Z,12.26
2019-04-30T00:12:26.570Z,12.21
2019-04-30T00:14:55.156Z,12.18
2019-04-30T00:17:25.555Z,12.09
2019-04-30T00:19:59.800Z,12.24
2019-04-30T00:22:33.527Z,12.29
2019-04-30T00:24:55.801Z,12.27
2019-04-30T00:27:26.373Z,12.24
2019-04-30T00:29:55.772Z,12.23
2019-04-30T00:32:25.793Z,12.12
2019-04-30T00:34:55.638Z,12.13
2019-04-30T00:37:25.437Z,12.19
2019-04-30T00:39:56.739Z,12.11
2019-04-30T00:42:28.656Z,12.06
2019-04-30T00:44:55.442Z,12.13
2019-04-30T00:47:25.778Z,12.23
2019-04-30T00:49:58.911Z,12.12
2019-04-30T00:52:25.299Z,12.14
2019-04-30T00:54:55.332Z,12.22
2019-04-30T00:57:26.344Z,12.22
2019-04-30T00:59:54.910Z,12.15
2019-04-30T01:02:40.158Z,12.23
2019-04-30T01:05:10.977Z,12.18
2019-04-30T01:07:40.067Z,12.22
2019-04-30T01:10:11.587Z,12.22
2019-04-30T01:12:46.874Z,12.18
2019-04-30T01:15:14.548Z,12.23
2019-04-30T01:17:45.256Z,12.22
2019-04-30T01:20:11.915Z,12.18
2019-04-30T01:22:40.443Z,12.10
2019-04-30T01:25:13.526Z,12.00
2019-04-30T01:27:45.603Z,12.14
2019-04-30T01:30:13.357Z,12.04
2019-04-30T01:32:40.850Z,12.14
2019-04-30T01:35:09.359Z,12.16
2019-04-30T01:37:38.668Z,12.17
2019-04-30T01:40:13.483Z,12.22
2019-04-30T01:42:42.824Z,12.23
2019-04-30T01:45:09.167Z,12.26
2019-04-30T01:47:37.559Z,12.19
2019-04-30T01:50:09.246Z,12.13
2019-04-30T01:52:52.609Z,12.06
2019-04-30T01:55:23.912Z,12.05
2019-04-30T01:57:59.917Z,12.15
2019-04-30T02:00:35.804Z,12.11
2019-04-30T02:03:04.279Z,12.14
2019-04-30T02:05:32.709Z,12.13
2019-04-30T02:08:01.260Z,12.13
2019-04-30T02:10:29.671Z,12.06
2019-04-30T02:12:59.086Z,12.17
2019-04-30T02:15:29.171Z,12.00
2019-04-30T02:17:58.767Z,12.08
2019-04-30T02:20:28.753Z,12.04
2019-04-30T02:22:58.637Z,12.03
2019-04-30T02:25:29.562Z,12.13
2019-04-30T02:27:59.171Z,12.12
2019-04-30T02:30:30.469Z,12.17
2019-04-30T02:33:00.556Z,12.22
2019-04-30T02:35:32.526Z,12.16
2019-04-30T02:38:19.861Z,12.19
2019-04-30T02:40:49.819Z,12.23
2019-04-30T02:43:20.373Z,12.18
2019-04-30T02:45:51.413Z,12.06
2019-04-30T02:48:23.134Z,12.19
2019-04-30T02:50:53.718Z,12.21
2019-04-30T02:53:50.203Z,12.08
2019-04-30T02:56:20.217Z,12.14
2019-04-30T02:58:50.459Z,12.11
2019-04-30T03:01:20.273Z,12.18
2019-04-30T03:03:50.043Z,12.22
2019-04-30T03:06:20.428Z,12.30
2019-04-30T03:08:51.014Z,12.27
2019-04-30T03:11:20.618Z,12.21
2019-04-30T03:13:49.768Z,12.22
2019-04-30T03:16:20.851Z,12.30
2019-04-30T03:18:53.885Z,12.30
2019-04-30T03:21:40.515Z,12.27
2019-04-30T03:24:10.722Z,12.24
2019-04-30T03:26:40.028Z,12.23
2019-04-30T03:29:11.190Z,12.24
2019-04-30T03:31:44.278Z,12.24
2019-04-30T03:34:16.797Z,12.25
2019-04-30T03:36:40.864Z,12.24
2019-04-30T03:39:10.769Z,12.23
2019-04-30T03:41:41.409Z,12.22
2019-04-30T03:44:20.971Z,12.21
2019-04-30T03:46:40.413Z,12.22
2019-04-30T03:49:13.384Z,12.26
2019-04-30T03:51:42.142Z,12.20
2019-04-30T03:54:10.851Z,12.15
2019-04-30T03:56:40.640Z,12.21
2019-04-30T03:59:10.503Z,12.19
2019-04-30T04:01:59.572Z,12.23
2019-04-30T04:04:52.098Z,12.22
2019-04-30T04:07:25.516Z,12.17
2019-04-30T04:09:59.774Z,12.24
2019-04-30T04:12:30.446Z,12.28
2019-04-30T04:15:03.386Z,12.23
2019-04-30T04:17:31.498Z,12.21
2019-04-30T04:19:59.866Z,12.22
2019-04-30T04:22:30.661Z,12.23
2019-04-30T04:25:00.085Z,12.28
2019-04-30T04:27:30.146Z,12.25
2019-04-30T04:30:01.208Z,12.25
2019-04-30T04:32:30.834Z,12.28
2019-04-30T04:35:00.152Z,12.27
2019-04-30T04:37:30.657Z,12.28
2019-04-30T04:39:59.675Z,12.20
2019-04-30T04:42:32.504Z,12.24
2019-04-30T04:44:59.551Z,12.23
2019-04-30T04:47:30.836Z,12.21
2019-04-30T04:50:01.416Z,12.25
2019-04-30T04:52:31.746Z,12.27
2019-04-30T04:55:00.682Z,12.23
2019-04-30T04:57:30.448Z,12.21
2019-04-30T05:00:06.560Z,12.28
2019-04-30T05:02:33.908Z,12.24
2019-04-30T05:05:02.324Z,12.30
2019-04-30T05:07:30.736Z,12.22
2019-04-30T05:10:00.920Z,12.30
2019-04-30T05:12:29.864Z,12.28
2019-04-30T05:14:59.751Z,12.34
2019-04-30T05:17:31.676Z,12.28
2019-04-30T05:19:58.924Z,12.33
2019-04-30T05:22:29.207Z,12.26
2019-04-30T05:24:58.823Z,12.31
2019-04-30T05:27:27.491Z,12.31
2019-04-30T05:29:56.203Z,12.34
2019-04-30T05:32:24.643Z,12.35
2019-04-30T05:34:53.444Z,12.35
2019-04-30T05:37:22.542Z,12.36
2019-04-30T05:39:51.062Z,12.36
2019-04-30T05:42:20.840Z,12.27
2019-04-30T05:44:49.830Z,12.36
2019-04-30T05:47:19.624Z,12.38
2019-04-30T05:49:48.890Z,12.35
2019-04-30T05:52:19.880Z,12.27
2019-04-30T05:54:48.937Z,12.34
2019-04-30T05:57:19.613Z,12.41
2019-04-30T05:59:48.710Z,12.42
2019-04-30T06:02:19.336Z,12.44
2019-04-30T06:04:48.998Z,12.43
2019-04-30T06:07:18.995Z,12.49
2019-04-30T06:09:50.217Z,12.48
2019-04-30T06:12:39.295Z,12.47
2019-04-30T06:15:11.779Z,12.48
2019-04-30T06:17:41.439Z,12.53
2019-04-30T06:20:17.805Z,12.52
2019-04-30T06:22:40.634Z,12.54
2019-04-30T06:25:10.790Z,12.55
2019-04-30T06:27:39.622Z,12.57
2019-04-30T06:30:09.705Z,12.59
2019-04-30T06:32:39.533Z,12.51
2019-04-30T06:35:09.248Z,12.55
2019-04-30T06:37:39.048Z,12.43
2019-04-30T06:40:09.445Z,12.51
2019-04-30T06:42:39.403Z,12.57
2019-04-30T06:45:09.174Z,12.56
2019-04-30T06:47:38.902Z,12.55
2019-04-30T06:50:09.723Z,12.56
2019-04-30T06:52:39.020Z,12.63
2019-04-30T06:55:09.456Z,12.62
2019-04-30T06:57:38.420Z,12.57
2019-04-30T07:00:09.833Z,12.58
2019-04-30T07:02:39.291Z,12.58
2019-04-30T07:05:10.178Z,12.61
2019-04-30T07:07:41.745Z,12.67
2019-04-30T07:10:21.178Z,12.67
2019-04-30T07:12:59.773Z,12.65
2019-04-30T07:15:29.554Z,12.65
2019-04-30T07:17:59.133Z,12.66
2019-04-30T07:20:29.109Z,12.67
2019-04-30T07:23:02.863Z,12.72
2019-04-30T07:25:29.331Z,12.77
2019-04-30T07:27:59.784Z,12.77
2019-04-30T07:30:30.651Z,12.74
2019-04-30T07:32:59.662Z,12.76
2019-04-30T07:35:29.224Z,12.81
2019-04-30T07:38:00.654Z,12.87
2019-04-30T07:40:29.253Z,13.04
2019-04-30T07:42:59.121Z,13.11
2019-04-30T07:45:31.574Z,13.25
2019-04-30T07:47:59.405Z,13.51
2019-04-30T07:50:30.607Z,13.52
2019-04-30T07:53:05.419Z,13.60
2019-04-30T07:55:29.541Z,13.46
2019-04-30T07:57:59.135Z,13.28
2019-04-30T08:00:30.986Z,13.35
2019-04-30T08:03:00.001Z,13.32
2019-04-30T08:05:32.783Z,13.37
2019-04-30T08:08:16.651Z,13.39
2019-04-30T08:10:31.391Z,13.91
2019-04-30T08:13:08.655Z,13.91
2019-04-30T08:15:29.986Z,13.90
2019-04-30T08:18:03.502Z,14.42
2019-04-30T08:20:29.575Z,14.32
2019-04-30T08:23:03.090Z,14.19
2019-04-30T08:25:29.045Z,14.20
2019-04-30T08:27:59.136Z,14.38
2019-04-30T08:30:29.904Z,14.40
2019-04-30T08:32:59.587Z,14.90
2019-04-30T08:35:29.669Z,14.98
2019-04-30T08:37:59.058Z,15.36
2019-04-30T08:40:29.599Z,15.54
2019-04-30T08:42:59.469Z,15.62
2019-04-30T08:45:31.467Z,15.45
2019-04-30T08:47:59.024Z,15.62
2019-04-30T08:50:29.714Z,15.86
2019-04-30T08:52:59.724Z,16.07
2019-04-30T08:55:30.337Z,16.27
2019-04-30T08:58:09.395Z,16.43
2019-04-30T09:00:29.752Z,16.13
2019-04-30T09:02:59.390Z,16.16
2019-04-30T09:05:35.565Z,15.93
2019-04-30T09:08:06.142Z,16.43
2019-04-30T09:10:34.545Z,16.44
2019-04-30T09:13:02.977Z,16.67
2019-04-30T09:15:31.422Z,16.83
2019-04-30T09:18:05.893Z,16.91
2019-04-30T09:20:30.002Z,17.16
2019-04-30T09:22:59.578Z,17.37
2019-04-30T09:25:28.680Z,17.50
2019-04-30T09:27:58.858Z,17.57
2019-04-30T09:30:27.486Z,17.54
2019-04-30T09:32:55.894Z,17.71
2019-04-30T09:35:24.300Z,17.86
2019-04-30T09:37:58.913Z,18.00
2019-04-30T09:40:22.884Z,18.13
2019-04-30T09:42:51.306Z,18.15
2019-04-30T09:45:19.860Z,18.09
2019-04-30T09:47:50.369Z,18.40
2019-04-30T09:50:18.925Z,18.41
2019-04-30T09:52:49.515Z,18.57
2019-04-30T09:55:19.249Z,18.85
2019-04-30T09:57:48.853Z,18.87
2019-04-30T10:00:19.395Z,18.73
2019-04-30T10:02:48.893Z,18.86
2019-04-30T10:05:19.279Z,19.15
2019-04-30T10:07:49.350Z,19.49
2019-04-30T10:10:20.178Z,19.62
2019-04-30T10:12:49.265Z,19.82
2019-04-30T10:15:31.652Z,19.84
2019-04-30T10:18:00.054Z,20.21
2019-04-30T10:20:43.092Z,20.24
2019-04-30T10:23:11.578Z,20.35
2019-04-30T10:25:40.086Z,20.45
2019-04-30T10:28:09.999Z,20.53
2019-04-30T10:30:38.738Z,20.90
2019-04-30T10:33:07.320Z,21.30
2019-04-30T10:35:35.826Z,21.58
2019-04-30T10:38:04.668Z,21.54
2019-04-30T10:40:33.206Z,21.75
2019-04-30T10:43:01.678Z,21.76
2019-04-30T10:45:30.672Z,22.04
2019-04-30T10:47:59.326Z,22.02
2019-04-30T10:50:27.744Z,22.23
2019-04-30T10:52:56.254Z,21.97
2019-04-30T10:55:24.774Z,21.58
2019-04-30T10:57:53.181Z,22.08
2019-04-30T11:00:24.632Z,22.66
2019-04-30T11:02:53.072Z,22.66
2019-04-30T11:05:21.572Z,22.77
2019-04-30T11:07:50.006Z,22.22
2019-04-30T11:10:18.973Z,22.98
2019-04-30T11:12:47.350Z,23.19
2019-04-30T11:15:15.916Z,23.45
2019-04-30T11:17:44.523Z,22.84
2019-04-30T11:20:13.551Z,23.30
2019-04-30T11:22:42.290Z,23.68
2019-04-30T11:25:11.667Z,23.55
2019-04-30T11:27:41.179Z,23.81
2019-04-30T11:30:20.724Z,23.57
2019-04-30T11:32:41.079Z,23.40
2019-04-30T11:35:09.830Z,23.41
2019-04-30T11:37:38.238Z,23.60
2019-04-30T11:40:07.806Z,24.03
2019-04-30T11:42:36.210Z,23.84
2019-04-30T11:45:08.606Z,22.42
2019-04-30T11:47:38.407Z,22.14
2019-04-30T11:50:09.957Z,21.48
2019-04-30T11:52:38.380Z,21.45
2019-04-30T11:55:09.510Z,20.87
2019-04-30T11:57:39.783Z,20.21
2019-04-30T12:00:13.457Z,19.85
2019-04-30T12:02:42.039Z,19.85
2019-04-30T12:05:11.625Z,19.97
2019-04-30T12:07:44.184Z,19.43
2019-04-30T12:10:20.770Z,19.60
2019-04-30T12:12:49.385Z,19.37
2019-04-30T12:15:19.217Z,19.03
2019-04-30T12:17:47.693Z,19.08
2019-04-30T12:20:16.568Z,19.08
2019-04-30T12:22:44.981Z,18.89
2019-04-30T12:25:13.669Z,18.80
2019-04-30T12:27:42.086Z,18.77
2019-04-30T12:30:11.199Z,18.88
2019-04-30T12:32:39.709Z,18.78
2019-04-30T12:35:09.930Z,18.54
2019-04-30T12:37:39.069Z,18.82
2019-04-30T12:40:09.499Z,18.67
2019-04-30T12:42:38.839Z,18.67
2019-04-30T12:45:09.454Z,18.62
2019-04-30T12:47:42.336Z,18.62
2019-04-30T12:50:29.200Z,18.49
2019-04-30T12:53:02.250Z,18.34
2019-04-30T12:55:49.020Z,18.45
2019-04-30T12:58:20.566Z,18.37
2019-04-30T13:00:49.154Z,18.21
2019-04-30T13:03:17.722Z,18.40
2019-04-30T13:05:46.469Z,18.55
2019-04-30T13:08:15.312Z,18.45
2019-04-30T13:10:44.920Z,18.42
2019-04-30T13:13:15.727Z,18.51
2019-04-30T13:15:44.382Z,18.80
2019-04-30T13:18:12.893Z,18.48
2019-04-30T13:20:41.459Z,18.82
2019-04-30T13:23:09.883Z,18.96
2019-04-30T13:25:50.344Z,18.74
2019-04-30T13:28:10.075Z,18.66
2019-04-30T13:30:39.991Z,18.58
2019-04-30T13:33:12.846Z,18.78
2019-04-30T13:35:41.243Z,18.82
2019-04-30T13:38:27.813Z,18.72
2019-04-30T13:41:00.269Z,18.81
2019-04-30T13:43:48.563Z,18.81
2019-04-30T13:46:18.475Z,18.89
2019-04-30T13:48:46.958Z,18.56
2019-04-30T13:51:15.348Z,18.49
2019-04-30T13:53:43.786Z,18.60
2019-04-30T13:56:12.312Z,18.49
2019-04-30T13:58:40.714Z,18.26
2019-04-30T14:01:09.127Z,18.42
2019-04-30T14:03:39.222Z,18.25
2019-04-30T14:06:09.768Z,18.20
2019-04-30T14:08:42.241Z,18.25
2019-04-30T14:11:10.654Z,18.29
2019-04-30T14:13:39.169Z,18.25
2019-04-30T14:16:07.709Z,18.21
2019-04-30T14:18:36.171Z,18.24
2019-04-30T14:21:04.778Z,18.22
2019-04-30T14:23:33.228Z,18.29
2019-04-30T14:26:01.639Z,18.27
2019-04-30T14:28:30.068Z,18.24
2019-04-30T14:30:58.552Z,18.18
2019-04-30T14:33:27.012Z,18.15
2019-04-30T14:35:55.435Z,18.00
2019-04-30T14:38:23.885Z,18.11
2019-04-30T14:40:53.098Z,18.22
2019-04-30T14:43:26.745Z,18.16
2019-04-30T14:46:06.563Z,18.08
2019-04-30T14:48:39.622Z,18.15
2019-04-30T14:51:06.923Z,18.18
2019-04-30T14:53:43.046Z,18.14
2019-04-30T14:56:19.636Z,18.15
2019-04-30T14:58:56.136Z,18.17
2019-04-30T15:01:38.199Z,18.12
2019-04-30T15:04:06.637Z,18.17
2019-04-30T15:06:35.041Z,18.18
2019-04-30T15:09:05.367Z,18.19
2019-04-30T15:11:34.186Z,18.13
2019-04-30T15:14:02.666Z,18.08
2019-04-30T15:16:31.096Z,18.12
2019-04-30T15:18:59.491Z,18.12
2019-04-30T15:21:27.947Z,18.11
2019-04-30T15:24:01.652Z,18.11
2019-04-30T15:26:30.295Z,18.12
2019-04-30T15:29:00.100Z,18.08
2019-04-30T15:31:30.833Z,18.01
2019-04-30T15:34:02.978Z,18.06
2019-04-30T15:36:31.101Z,18.04
2019-04-30T15:39:01.167Z,17.97
2019-04-30T15:41:30.546Z,17.95
2019-04-30T15:43:59.651Z,17.97
2019-04-30T15:46:28.126Z,17.97
2019-04-30T15:48:56.634Z,17.97
2019-04-30T15:51:25.061Z,18.00
2019-04-30T15:53:53.503Z,18.00
2019-04-30T15:56:33.900Z,17.98
2019-04-30T15:59:10.203Z,17.88
2019-04-30T16:01:40.379Z,17.88
2019-04-30T16:04:10.462Z,17.86
2019-04-30T16:06:38.872Z,17.85
2019-04-30T16:09:18.274Z,17.87
2019-04-30T16:12:05.423Z,17.87
2019-04-30T16:14:35.519Z,17.84
2019-04-30T16:17:11.390Z,17.84
2019-04-30T16:19:39.816Z,17.87
2019-04-30T16:22:11.008Z,17.86
2019-04-30T16:24:39.515Z,17.80
2019-04-30T16:27:09.266Z,17.75
2019-04-30T16:29:38.800Z,17.71
2019-04-30T16:32:09.302Z,17.63
2019-04-30T16:34:38.867Z,17.68
2019-04-30T16:37:07.424Z,17.78
2019-04-30T16:39:35.867Z,17.77
2019-04-30T16:42:04.413Z,17.76
2019-04-30T16:44:32.925Z,17.78
2019-04-30T16:47:12.944Z,17.83
2019-04-30T16:49:31.582Z,17.90
2019-04-30T16:52:01.567Z,17.82
2019-04-30T16:54:30.095Z,17.82
2019-04-30T16:57:06.909Z,17.73
2019-04-30T16:59:38.800Z,17.73
2019-04-30T17:02:09.362Z,17.77
2019-04-30T17:04:45.415Z,17.75
2019-04-30T17:07:24.753Z,17.72
2019-04-30T17:09:54.809Z,17.68
2019-04-30T17:12:24.927Z,17.72
2019-04-30T17:15:11.180Z,17.67
2019-04-30T17:17:40.468Z,17.74
2019-04-30T17:20:09.025Z,17.77
2019-04-30T17:22:39.364Z,17.75
2019-04-30T17:25:08.643Z,17.77
2019-04-30T17:27:39.136Z,17.65
2019-04-30T17:30:11.167Z,17.62
2019-04-30T17:32:39.582Z,17.59
2019-04-30T17:35:09.017Z,17.54
2019-04-30T17:37:37.686Z,17.53
2019-04-30T17:40:09.263Z,17.49
2019-04-30T17:42:37.575Z,17.44
2019-04-30T17:45:11.038Z,17.41
2019-04-30T17:47:39.543Z,17.42
2019-04-30T17:50:09.153Z,17.38
2019-04-30T17:52:37.602Z,17.37
2019-04-30T17:55:09.708Z,17.32
2019-04-30T17:57:40.072Z,17.28
2019-04-30T18:00:18.781Z,17.25
2019-04-30T18:02:40.854Z,17.23
2019-04-30T18:05:11.119Z,17.21
2019-04-30T18:07:39.571Z,17.17
2019-04-30T18:10:10.342Z,17.10
2019-04-30T18:12:39.244Z,17.11
2019-04-30T18:15:11.262Z,17.08
2019-04-30T18:17:39.776Z,17.06
2019-04-30T18:20:10.942Z,17.00
2019-04-30T18:22:41.265Z,17.01
2019-04-30T18:25:27.818Z,16.99
2019-04-30T18:27:59.519Z,16.98
2019-04-30T18:30:29.775Z,16.87
2019-04-30T18:32:58.519Z,16.91
2019-04-30T18:35:28.656Z,16.90
2019-04-30T18:37:58.563Z,16.83
2019-04-30T18:40:27.287Z,16.86
2019-04-30T18:42:55.785Z,16.79
2019-04-30T18:45:24.326Z,16.73
2019-04-30T18:47:52.855Z,16.70
2019-04-30T18:50:26.227Z,16.75
2019-04-30T18:52:58.615Z,16.71
2019-04-30T18:55:26.868Z,16.70
2019-04-30T18:57:56.881Z,16.64
2019-04-30T19:00:39.684Z,16.66
2019-04-30T19:03:08.672Z,16.73
2019-04-30T19:05:39.310Z,16.64
2019-04-30T19:08:09.865Z,16.60
2019-04-30T19:10:43.014Z,16.48
2019-04-30T19:13:29.844Z,16.51
2019-04-30T19:16:19.782Z,16.48
2019-04-30T19:18:49.376Z,16.44
2019-04-30T19:21:17.967Z,16.44
2019-04-30T19:23:46.381Z,16.42
2019-04-30T19:26:14.901Z,16.33
2019-04-30T19:28:43.433Z,16.38
2019-04-30T19:31:12.451Z,16.36
2019-04-30T19:33:40.866Z,16.33
2019-04-30T19:36:09.910Z,16.31
2019-04-30T19:38:38.433Z,16.29
2019-04-30T19:41:10.651Z,16.19
2019-04-30T19:43:37.169Z,16.18
2019-04-30T19:46:09.066Z,16.04
2019-04-30T19:48:37.631Z,15.95
2019-04-30T19:51:06.085Z,15.97
2019-04-30T19:53:34.495Z,16.03
2019-04-30T19:56:02.940Z,15.98
2019-04-30T19:58:48.145Z,15.94
2019-04-30T20:01:01.596Z,15.93
2019-04-30T20:03:30.087Z,15.79
2019-04-30T20:05:58.688Z,15.82
2019-04-30T20:08:28.714Z,15.72
2019-04-30T20:10:59.170Z,15.65
2019-04-30T20:13:33.899Z,15.63
2019-04-30T20:15:59.384Z,15.63
2019-04-30T20:18:29.241Z,15.62
2019-04-30T20:21:01.158Z,15.56
2019-04-30T20:23:29.667Z,15.59
2019-04-30T20:26:01.176Z,15.53
2019-04-30T20:28:38.986Z,15.58
2019-04-30T20:30:59.798Z,15.48
2019-04-30T20:33:28.994Z,15.47
2019-04-30T20:35:59.005Z,15.47
2019-04-30T20:38:32.155Z,15.40
2019-04-30T20:41:03.046Z,15.46
2019-04-30T20:43:30.757Z,15.37
2019-04-30T20:46:00.820Z,15.37
2019-04-30T20:48:30.045Z,15.37
2019-04-30T20:51:01.149Z,15.35
2019-04-30T20:53:28.697Z,15.29
2019-04-30T20:55:59.197Z,15.11
2019-04-30T20:58:27.359Z,15.19
2019-04-30T21:01:03.430Z,15.12
2019-04-30T21:03:26.125Z,15.11
2019-04-30T21:05:54.579Z,15.06
2019-04-30T21:08:23.066Z,15.10
2019-04-30T21:10:54.151Z,15.02
2019-04-30T21:13:22.616Z,14.95
2019-04-30T21:15:51.031Z,14.96
2019-04-30T21:18:19.635Z,14.98
2019-04-30T21:20:49.677Z,14.95
2019-04-30T21:23:19.427Z,14.93
2019-04-30T21:25:48.790Z,14.75
2019-04-30T21:28:19.524Z,14.66
2019-04-30T21:30:47.508Z,14.66
2019-04-30T21:33:19.317Z,14.64
2019-04-30T21:35:50.790Z,14.62
2019-04-30T21:38:19.574Z,14.55
2019-04-30T21:40:49.215Z,14.50
2019-04-30T21:43:17.749Z,14.49
2019-04-30T21:45:46.156Z,14.47
2019-04-30T21:48:14.602Z,14.45
2019-04-30T21:50:43.080Z,14.33
2019-04-30T21:53:11.525Z,14.34
2019-04-30T21:55:40.106Z,14.35
2019-04-30T21:58:09.615Z,14.38
2019-04-30T22:00:43.291Z,14.38
2019-04-30T22:03:11.771Z,14.29
2019-04-30T22:05:40.283Z,14.29
2019-04-30T22:08:09.195Z,14.32
2019-04-30T22:10:37.720Z,14.22
2019-04-30T22:13:06.129Z,14.21
2019-04-30T22:15:34.563Z,14.19
2019-04-30T22:18:03.278Z,14.21
2019-04-30T22:20:32.154Z,14.17
2019-04-30T22:23:00.602Z,14.15
2019-04-30T22:25:29.372Z,14.09
2019-04-30T22:27:57.898Z,14.08
2019-04-30T22:30:26.343Z,14.11
2019-04-30T22:32:54.793Z,14.02
2019-04-30T22:35:29.692Z,13.99
2019-04-30T22:37:59.817Z,13.92
2019-04-30T22:40:31.308Z,13.92
2019-04-30T22:42:59.347Z,13.88
2019-04-30T22:45:29.590Z,13.97
2019-04-30T22:47:58.913Z,13.94
2019-04-30T22:50:27.583Z,14.01
2019-04-30T22:52:56.175Z,13.93
2019-04-30T22:55:24.618Z,13.97
2019-04-30T22:57:53.065Z,13.97
2019-04-30T23:00:23.494Z,13.98
2019-04-30T23:02:53.610Z,13.93
2019-04-30T23:05:22.102Z,13.83
2019-04-30T23:07:50.625Z,13.85
2019-04-30T23:10:19.246Z,13.83
2019-04-30T23:12:47.652Z,13.79
2019-04-30T23:15:19.428Z,13.86
2019-04-30T23:17:47.893Z,13.86
2019-04-30T23:20:16.375Z,13.78
2019-04-30T23:22:44.786Z,13.73
2019-04-30T23:25:13.428Z,13.72
2019-04-30T23:27:41.970Z,13.71
2019-04-30T23:30:10.939Z,13.69
2019-04-30T23:32:39.367Z,13.73
2019-04-30T23:35:08.444Z,13.62
2019-04-30T23:37:36.876Z,13.58
2019-04-30T23:40:23.790Z,13.67
2019-04-30T23:42:53.889Z,13.61
2019-04-30T23:45:22.559Z,13.61
2019-04-30T23:47:51.077Z,13.65
2019-04-30T23:50:19.643Z,13.52
2019-04-30T23:52:48.138Z,13.49
2019-04-30T23:55:16.721Z,13.49
2019-04-30T23:57:45.189Z,13.57
